sensor_id;sensor_type;location;lat;lon;timestamp;P1;P2;P0
12542;PMS3003;6337;49.556;25.594;2023-04-03T00:02:57;2.30;1.13;
12542;PMS3003;6337;49.556;25.594;2023-04-03T00:05:34;2.20;1.80;
12542;PMS3003;6337;49.556;25.594;2023-04-03T00:08:07;2.40;1.63;
12542;PMS3003;6337;49.556;25.594;2023-04-03T00:10:39;1.70;1.60;
12542;PMS3003;6337;49.556;25.594;2023-04-03T00:13:09;2.07;1.00;
12542;PMS3003;6337;49.556;25.594;2023-04-03T00:18:22;1.40;1.40;
12542;PMS3003;6337;49.556;25.594;2023-04-03T00:20:52;1.43;1.33;
12542;PMS3003;6337;49.556;25.594;2023-04-03T00:23:22;1.53;1.43;
12542;PMS3003;6337;49.556;25.594;2023-04-03T00:25:50;1.30;1.30;
12542;PMS3003;6337;49.556;25.594;2023-04-03T00:28:19;1.83;1.73;
12542;PMS3003;6337;49.556;25.594;2023-04-03T00:31:05;1.10;1.10;
12542;PMS3003;6337;49.556;25.594;2023-04-03T00:33:34;2.20;1.73;
12542;PMS3003;6337;49.556;25.594;2023-04-03T00:36:30;1.23;1.23;
12542;PMS3003;6337;49.556;25.594;2023-04-03T00:39:24;1.27;1.20;
12542;PMS3003;6337;49.556;25.594;2023-04-03T00:42:18;2.80;1.10;
12542;PMS3003;6337;49.556;25.594;2023-04-03T00:45:34;2.00;1.90;
12542;PMS3003;6337;49.556;25.594;2023-04-03T00:48:56;1.33;1.23;
12542;PMS3003;6337;49.556;25.594;2023-04-03T00:51:47;1.57;1.47;
12542;PMS3003;6337;49.556;25.594;2023-04-03T00:54:39;1.10;1.10;
12542;PMS3003;6337;49.556;25.594;2023-04-03T00:57:36;0.90;0.90;
12542;PMS3003;6337;49.556;25.594;2023-04-03T01:00:29;1.00;1.00;
12542;PMS3003;6337;49.556;25.594;2023-04-03T01:03:19;3.13;0.90;
12542;PMS3003;6337;49.556;25.594;2023-04-03T01:06:14;0.90;0.90;
12542;PMS3003;6337;49.556;25.594;2023-04-03T01:09:07;2.87;1.00;
12542;PMS3003;6337;49.556;25.594;2023-04-03T01:12:12;1.20;1.10;
12542;PMS3003;6337;49.556;25.594;2023-04-03T01:15:07;1.07;1.07;
12542;PMS3003;6337;49.556;25.594;2023-04-03T01:18:02;1.17;1.13;
12542;PMS3003;6337;49.556;25.594;2023-04-03T01:27:01;1.00;1.00;
12542;PMS3003;6337;49.556;25.594;2023-04-03T01:29:31;2.20;0.90;
12542;PMS3003;6337;49.556;25.594;2023-04-03T01:34:46;1.27;1.17;
12542;PMS3003;6337;49.556;25.594;2023-04-03T01:37:13;1.07;1.07;
12542;PMS3003;6337;49.556;25.594;2023-04-03T01:39:43;1.43;1.33;
12542;PMS3003;6337;49.556;25.594;2023-04-03T01:42:14;2.07;1.97;
12542;PMS3003;6337;49.556;25.594;2023-04-03T01:44:42;1.83;1.73;
12542;PMS3003;6337;49.556;25.594;2023-04-03T01:47:09;3.23;2.20;
12542;PMS3003;6337;49.556;25.594;2023-04-03T01:49:40;1.97;1.87;
12542;PMS3003;6337;49.556;25.594;2023-04-03T01:52:07;1.37;1.27;
12542;PMS3003;6337;49.556;25.594;2023-04-03T01:54:34;1.40;1.30;
12542;PMS3003;6337;49.556;25.594;2023-04-03T01:57:07;1.00;1.00;
12542;PMS3003;6337;49.556;25.594;2023-04-03T01:59:40;1.10;1.10;
12542;PMS3003;6337;49.556;25.594;2023-04-03T02:02:18;4.10;1.50;
12542;PMS3003;6337;49.556;25.594;2023-04-03T02:04:49;1.83;1.00;
12542;PMS3003;6337;49.556;25.594;2023-04-03T02:07:17;0.90;0.90;
12542;PMS3003;6337;49.556;25.594;2023-04-03T02:09:47;1.30;1.30;
12542;PMS3003;6337;49.556;25.594;2023-04-03T02:12:15;1.30;1.30;
12542;PMS3003;6337;49.556;25.594;2023-04-03T02:14:43;1.17;1.17;
12542;PMS3003;6337;49.556;25.594;2023-04-03T02:17:12;1.50;1.50;
12542;PMS3003;6337;49.556;25.594;2023-04-03T02:19:43;1.80;1.80;
12542;PMS3003;6337;49.556;25.594;2023-04-03T02:22:15;1.60;1.60;
12542;PMS3003;6337;49.556;25.594;2023-04-03T02:24:42;1.57;1.47;
12542;PMS3003;6337;49.556;25.594;2023-04-03T02:27:13;1.87;1.77;
12542;PMS3003;6337;49.556;25.594;2023-04-03T02:29:41;1.80;1.70;
12542;PMS3003;6337;49.556;25.594;2023-04-03T02:32:10;1.73;1.70;
12542;PMS3003;6337;49.556;25.594;2023-04-03T02:34:39;1.40;1.40;
12542;PMS3003;6337;49.556;25.594;2023-04-03T02:37:09;1.20;1.20;
12542;PMS3003;6337;49.556;25.594;2023-04-03T02:39:39;1.70;1.60;
12542;PMS3003;6337;49.556;25.594;2023-04-03T02:42:08;1.37;1.37;
12542;PMS3003;6337;49.556;25.594;2023-04-03T02:44:36;1.30;1.20;
12542;PMS3003;6337;49.556;25.594;2023-04-03T02:47:05;1.10;1.10;
12542;PMS3003;6337;49.556;25.594;2023-04-03T02:49:57;1.33;1.33;
12542;PMS3003;6337;49.556;25.594;2023-04-03T02:52:48;1.23;1.23;
12542;PMS3003;6337;49.556;25.594;2023-04-03T03:02:23;1.47;1.40;
12542;PMS3003;6337;49.556;25.594;2023-04-03T03:05:25;2.30;2.20;
12542;PMS3003;6337;49.556;25.594;2023-04-03T03:08:16;1.70;1.70;
12542;PMS3003;6337;49.556;25.594;2023-04-03T03:11:09;1.80;1.70;
12542;PMS3003;6337;49.556;25.594;2023-04-03T03:14:03;2.27;2.17;
12542;PMS3003;6337;49.556;25.594;2023-04-03T03:16:38;1.73;1.63;
12542;PMS3003;6337;49.556;25.594;2023-04-03T03:19:06;2.17;1.97;
12542;PMS3003;6337;49.556;25.594;2023-04-03T03:21:34;1.27;1.17;
12542;PMS3003;6337;49.556;25.594;2023-04-03T03:24:08;1.37;1.37;
12542;PMS3003;6337;49.556;25.594;2023-04-03T03:26:38;1.57;1.47;
12542;PMS3003;6337;49.556;25.594;2023-04-03T03:29:08;1.13;1.13;
12542;PMS3003;6337;49.556;25.594;2023-04-03T03:31:47;1.10;1.03;
12542;PMS3003;6337;49.556;25.594;2023-04-03T03:34:16;1.77;1.23;
12542;PMS3003;6337;49.556;25.594;2023-04-03T03:36:43;1.13;1.13;
12542;PMS3003;6337;49.556;25.594;2023-04-03T03:39:14;1.07;1.07;
12542;PMS3003;6337;49.556;25.594;2023-04-03T03:41:41;1.47;1.37;
12542;PMS3003;6337;49.556;25.594;2023-04-03T03:44:24;1.40;1.33;
12542;PMS3003;6337;49.556;25.594;2023-04-03T03:46:58;1.10;1.10;
12542;PMS3003;6337;49.556;25.594;2023-04-03T03:49:26;1.50;1.50;
12542;PMS3003;6337;49.556;25.594;2023-04-03T03:51:53;1.93;1.60;
12542;PMS3003;6337;49.556;25.594;2023-04-03T03:54:22;2.13;2.03;
12542;PMS3003;6337;49.556;25.594;2023-04-03T03:56:52;4.30;2.07;
12542;PMS3003;6337;49.556;25.594;2023-04-03T03:59:52;1.93;1.83;
12542;PMS3003;6337;49.556;25.594;2023-04-03T04:02:38;1.70;1.60;
12542;PMS3003;6337;49.556;25.594;2023-04-03T04:05:08;1.20;1.20;
12542;PMS3003;6337;49.556;25.594;2023-04-03T04:07:38;1.53;1.43;
12542;PMS3003;6337;49.556;25.594;2023-04-03T04:10:07;1.00;1.00;
12542;PMS3003;6337;49.556;25.594;2023-04-03T04:12:40;1.23;1.20;
12542;PMS3003;6337;49.556;25.594;2023-04-03T04:15:08;1.37;1.37;
12542;PMS3003;6337;49.556;25.594;2023-04-03T04:17:46;1.40;1.40;
12542;PMS3003;6337;49.556;25.594;2023-04-03T04:20:26;1.80;1.70;
12542;PMS3003;6337;49.556;25.594;2023-04-03T04:23:08;1.40;1.30;
12542;PMS3003;6337;49.556;25.594;2023-04-03T04:25:51;2.30;2.10;
12542;PMS3003;6337;49.556;25.594;2023-04-03T04:28:25;1.50;1.50;
12542;PMS3003;6337;49.556;25.594;2023-04-03T04:31:01;1.40;1.40;
12542;PMS3003;6337;49.556;25.594;2023-04-03T04:33:40;1.27;1.27;
12542;PMS3003;6337;49.556;25.594;2023-04-03T04:36:09;1.97;1.50;
12542;PMS3003;6337;49.556;25.594;2023-04-03T04:38:55;1.10;1.10;
12542;PMS3003;6337;49.556;25.594;2023-04-03T04:41:30;2.57;1.67;
12542;PMS3003;6337;49.556;25.594;2023-04-03T04:43:59;2.07;1.97;
12542;PMS3003;6337;49.556;25.594;2023-04-03T04:46:29;3.23;3.03;
12542;PMS3003;6337;49.556;25.594;2023-04-03T04:49:02;4.83;3.50;
12542;PMS3003;6337;49.556;25.594;2023-04-03T04:51:29;2.40;2.13;
12542;PMS3003;6337;49.556;25.594;2023-04-03T04:53:59;10.50;2.20;
12542;PMS3003;6337;49.556;25.594;2023-04-03T04:56:26;1.90;1.80;
12542;PMS3003;6337;49.556;25.594;2023-04-03T04:58:55;2.03;1.93;
12542;PMS3003;6337;49.556;25.594;2023-04-03T05:01:22;2.17;2.07;
12542;PMS3003;6337;49.556;25.594;2023-04-03T05:03:55;2.27;2.10;
12542;PMS3003;6337;49.556;25.594;2023-04-03T05:06:26;2.57;2.37;
12542;PMS3003;6337;49.556;25.594;2023-04-03T05:08:56;1.90;1.80;
12542;PMS3003;6337;49.556;25.594;2023-04-03T05:11:27;1.80;1.70;
12542;PMS3003;6337;49.556;25.594;2023-04-03T05:13:56;1.67;1.57;
12542;PMS3003;6337;49.556;25.594;2023-04-03T05:16:28;2.70;1.87;
12542;PMS3003;6337;49.556;25.594;2023-04-03T05:19:19;2.77;2.67;
12542;PMS3003;6337;49.556;25.594;2023-04-03T05:24:53;2.73;2.53;
12542;PMS3003;6337;49.556;25.594;2023-04-03T05:27:25;2.33;2.23;
12542;PMS3003;6337;49.556;25.594;2023-04-03T05:29:55;2.50;2.30;
12542;PMS3003;6337;49.556;25.594;2023-04-03T05:32:23;7.30;2.83;
12542;PMS3003;6337;49.556;25.594;2023-04-03T05:34:52;2.27;2.17;
12542;PMS3003;6337;49.556;25.594;2023-04-03T05:37:25;2.63;2.20;
12542;PMS3003;6337;49.556;25.594;2023-04-03T05:40:02;2.57;2.47;
12542;PMS3003;6337;49.556;25.594;2023-04-03T05:42:38;2.77;2.57;
12542;PMS3003;6337;49.556;25.594;2023-04-03T05:45:06;3.50;3.20;
12542;PMS3003;6337;49.556;25.594;2023-04-03T05:47:35;4.07;3.70;
12542;PMS3003;6337;49.556;25.594;2023-04-03T05:50:03;4.20;3.90;
12542;PMS3003;6337;49.556;25.594;2023-04-03T05:52:34;4.70;4.30;
12542;PMS3003;6337;49.556;25.594;2023-04-03T05:58:08;7.93;3.90;
12542;PMS3003;6337;49.556;25.594;2023-04-03T06:00:37;4.17;3.73;
12542;PMS3003;6337;49.556;25.594;2023-04-03T06:03:09;3.30;2.97;
12542;PMS3003;6337;49.556;25.594;2023-04-03T06:05:37;2.83;2.57;
12542;PMS3003;6337;49.556;25.594;2023-04-03T06:08:06;3.63;3.33;
12542;PMS3003;6337;49.556;25.594;2023-04-03T06:10:48;3.10;3.00;
12542;PMS3003;6337;49.556;25.594;2023-04-03T06:13:19;5.40;3.97;
12542;PMS3003;6337;49.556;25.594;2023-04-03T06:15:46;4.40;4.10;
12542;PMS3003;6337;49.556;25.594;2023-04-03T06:18:18;5.50;5.10;
12542;PMS3003;6337;49.556;25.594;2023-04-03T06:20:52;8.83;4.23;
12542;PMS3003;6337;49.556;25.594;2023-04-03T06:23:20;4.13;3.80;
12542;PMS3003;6337;49.556;25.594;2023-04-03T06:25:57;5.57;4.27;
12542;PMS3003;6337;49.556;25.594;2023-04-03T06:28:25;4.40;4.00;
12542;PMS3003;6337;49.556;25.594;2023-04-03T06:30:54;4.27;3.97;
12542;PMS3003;6337;49.556;25.594;2023-04-03T06:33:22;4.67;4.27;
12542;PMS3003;6337;49.556;25.594;2023-04-03T06:35:55;4.17;3.67;
12542;PMS3003;6337;49.556;25.594;2023-04-03T06:38:24;3.97;3.67;
12542;PMS3003;6337;49.556;25.594;2023-04-03T06:40:54;4.20;3.90;
12542;PMS3003;6337;49.556;25.594;2023-04-03T06:43:22;3.93;3.63;
12542;PMS3003;6337;49.556;25.594;2023-04-03T06:45:50;8.83;4.53;
12542;PMS3003;6337;49.556;25.594;2023-04-03T06:48:17;5.10;3.63;
12542;PMS3003;6337;49.556;25.594;2023-04-03T06:50:46;4.97;3.77;
12542;PMS3003;6337;49.556;25.594;2023-04-03T06:53:14;6.67;4.40;
12542;PMS3003;6337;49.556;25.594;2023-04-03T06:55:42;4.57;3.10;
12542;PMS3003;6337;49.556;25.594;2023-04-03T06:58:12;11.40;3.73;
12542;PMS3003;6337;49.556;25.594;2023-04-03T07:00:40;6.33;3.20;
12542;PMS3003;6337;49.556;25.594;2023-04-03T07:03:08;3.23;2.93;
12542;PMS3003;6337;49.556;25.594;2023-04-03T07:05:35;2.73;2.53;
12542;PMS3003;6337;49.556;25.594;2023-04-03T07:08:04;3.10;2.90;
12542;PMS3003;6337;49.556;25.594;2023-04-03T07:10:32;3.97;3.67;
12542;PMS3003;6337;49.556;25.594;2023-04-03T07:13:03;3.90;3.30;
12542;PMS3003;6337;49.556;25.594;2023-04-03T07:18:56;4.20;3.80;
12542;PMS3003;6337;49.556;25.594;2023-04-03T07:21:37;2.83;2.63;
12542;PMS3003;6337;49.556;25.594;2023-04-03T07:24:06;3.57;3.27;
12542;PMS3003;6337;49.556;25.594;2023-04-03T07:26:35;3.00;2.80;
12542;PMS3003;6337;49.556;25.594;2023-04-03T07:29:04;3.13;2.50;
12542;PMS3003;6337;49.556;25.594;2023-04-03T07:31:34;2.63;2.53;
12542;PMS3003;6337;49.556;25.594;2023-04-03T07:34:08;2.20;2.03;
12542;PMS3003;6337;49.556;25.594;2023-04-03T07:36:36;3.27;2.77;
12542;PMS3003;6337;49.556;25.594;2023-04-03T07:39:04;3.60;3.30;
12542;PMS3003;6337;49.556;25.594;2023-04-03T07:41:33;3.20;2.90;
12542;PMS3003;6337;49.556;25.594;2023-04-03T07:44:06;5.10;3.10;
12542;PMS3003;6337;49.556;25.594;2023-04-03T07:46:39;7.93;6.33;
12542;PMS3003;6337;49.556;25.594;2023-04-03T07:49:12;4.13;3.83;
12542;PMS3003;6337;49.556;25.594;2023-04-03T07:51:43;10.00;5.20;
12542;PMS3003;6337;49.556;25.594;2023-04-03T07:54:12;4.30;3.90;
12542;PMS3003;6337;49.556;25.594;2023-04-03T07:56:41;11.77;3.97;
12542;PMS3003;6337;49.556;25.594;2023-04-03T07:59:12;4.70;4.23;
12542;PMS3003;6337;49.556;25.594;2023-04-03T08:01:39;3.27;2.97;
12542;PMS3003;6337;49.556;25.594;2023-04-03T08:04:07;3.50;3.20;
12542;PMS3003;6337;49.556;25.594;2023-04-03T08:06:39;3.10;2.90;
12542;PMS3003;6337;49.556;25.594;2023-04-03T08:09:07;4.10;2.30;
12542;PMS3003;6337;49.556;25.594;2023-04-03T08:11:35;3.40;3.10;
12542;PMS3003;6337;49.556;25.594;2023-04-03T08:14:09;3.80;2.73;
12542;PMS3003;6337;49.556;25.594;2023-04-03T08:16:44;2.17;2.07;
12542;PMS3003;6337;49.556;25.594;2023-04-03T08:19:13;1.60;1.50;
12542;PMS3003;6337;49.556;25.594;2023-04-03T08:21:47;2.83;2.63;
12542;PMS3003;6337;49.556;25.594;2023-04-03T08:24:14;1.60;1.60;
12542;PMS3003;6337;49.556;25.594;2023-04-03T08:26:45;2.07;1.97;
12542;PMS3003;6337;49.556;25.594;2023-04-03T08:29:36;2.20;1.97;
12542;PMS3003;6337;49.556;25.594;2023-04-03T08:32:17;2.40;2.30;
12542;PMS3003;6337;49.556;25.594;2023-04-03T08:35:03;4.07;2.40;
12542;PMS3003;6337;49.556;25.594;2023-04-03T08:38:03;2.30;2.20;
12542;PMS3003;6337;49.556;25.594;2023-04-03T08:40:34;5.60;2.40;
12542;PMS3003;6337;49.556;25.594;2023-04-03T08:43:21;4.67;2.20;
12542;PMS3003;6337;49.556;25.594;2023-04-03T08:46:08;3.00;2.40;
12542;PMS3003;6337;49.556;25.594;2023-04-03T08:48:53;2.93;2.17;
12542;PMS3003;6337;49.556;25.594;2023-04-03T08:51:25;1.90;1.80;
12542;PMS3003;6337;49.556;25.594;2023-04-03T08:54:05;2.47;2.37;
12542;PMS3003;6337;49.556;25.594;2023-04-03T08:56:38;2.40;2.30;
12542;PMS3003;6337;49.556;25.594;2023-04-03T08:59:11;3.00;2.80;
12542;PMS3003;6337;49.556;25.594;2023-04-03T09:01:40;5.00;3.17;
12542;PMS3003;6337;49.556;25.594;2023-04-03T09:04:09;3.63;3.33;
12542;PMS3003;6337;49.556;25.594;2023-04-03T09:06:52;2.97;2.77;
12542;PMS3003;6337;49.556;25.594;2023-04-03T09:09:28;2.23;2.13;
12542;PMS3003;6337;49.556;25.594;2023-04-03T09:12:13;2.80;2.30;
12542;PMS3003;6337;49.556;25.594;2023-04-03T09:14:57;2.43;2.23;
12542;PMS3003;6337;49.556;25.594;2023-04-03T09:17:35;2.73;2.50;
12542;PMS3003;6337;49.556;25.594;2023-04-03T09:20:17;2.40;2.30;
12542;PMS3003;6337;49.556;25.594;2023-04-03T09:23:12;2.80;2.47;
12542;PMS3003;6337;49.556;25.594;2023-04-03T09:31:52;3.35;2.63;
12542;PMS3003;6337;49.556;25.594;2023-04-03T09:34:38;2.47;2.27;
12542;PMS3003;6337;49.556;25.594;2023-04-03T09:37:36;2.28;2.17;
12542;PMS3003;6337;49.556;25.594;2023-04-03T09:48:24;2.20;2.10;
12542;PMS3003;6337;49.556;25.594;2023-04-03T09:50:58;2.83;2.60;
12542;PMS3003;6337;49.556;25.594;2023-04-03T09:53:36;3.15;2.95;
12542;PMS3003;6337;49.556;25.594;2023-04-03T10:04:18;3.20;2.90;
12542;PMS3003;6337;49.556;25.594;2023-04-03T10:06:51;2.22;2.13;
12542;PMS3003;6337;49.556;25.594;2023-04-03T10:09:24;2.77;2.67;
12542;PMS3003;6337;49.556;25.594;2023-04-03T10:14:58;2.13;2.03;
12542;PMS3003;6337;49.556;25.594;2023-04-03T10:35:18;1.80;1.70;
12542;PMS3003;6337;49.556;25.594;2023-04-03T10:37:55;4.17;1.70;
12542;PMS3003;6337;49.556;25.594;2023-04-03T10:40:30;2.60;2.33;
12542;PMS3003;6337;49.556;25.594;2023-04-03T10:43:03;3.00;2.40;
12542;PMS3003;6337;49.556;25.594;2023-04-03T10:45:42;2.77;2.57;
12542;PMS3003;6337;49.556;25.594;2023-04-03T10:48:20;3.40;3.10;
12542;PMS3003;6337;49.556;25.594;2023-04-03T10:50:57;2.10;2.00;
12542;PMS3003;6337;49.556;25.594;2023-04-03T10:53:27;2.80;2.07;
12542;PMS3003;6337;49.556;25.594;2023-04-03T10:56:01;2.03;1.93;
12542;PMS3003;6337;49.556;25.594;2023-04-03T10:58:33;2.07;1.97;
12542;PMS3003;6337;49.556;25.594;2023-04-03T11:01:10;3.40;3.10;
12542;PMS3003;6337;49.556;25.594;2023-04-03T11:03:40;4.20;2.67;
12542;PMS3003;6337;49.556;25.594;2023-04-03T11:06:15;2.30;2.20;
12542;PMS3003;6337;49.556;25.594;2023-04-03T11:09:01;2.43;2.33;
12542;PMS3003;6337;49.556;25.594;2023-04-03T11:11:33;2.33;2.20;
12542;PMS3003;6337;49.556;25.594;2023-04-03T11:14:05;2.65;2.45;
12542;PMS3003;6337;49.556;25.594;2023-04-03T11:16:43;3.57;3.00;
12542;PMS3003;6337;49.556;25.594;2023-04-03T11:19:15;5.23;3.03;
12542;PMS3003;6337;49.556;25.594;2023-04-03T11:24:34;8.88;3.50;
12542;PMS3003;6337;49.556;25.594;2023-04-03T11:27:03;4.90;3.37;
12542;PMS3003;6337;49.556;25.594;2023-04-03T11:29:35;3.13;2.93;
12542;PMS3003;6337;49.556;25.594;2023-04-03T11:32:09;2.33;2.23;
12542;PMS3003;6337;49.556;25.594;2023-04-03T11:34:39;2.53;2.42;
12542;PMS3003;6337;49.556;25.594;2023-04-03T11:37:12;2.20;2.00;
12542;PMS3003;6337;49.556;25.594;2023-04-03T11:39:45;2.20;2.10;
12542;PMS3003;6337;49.556;25.594;2023-04-03T11:42:16;2.10;1.90;
12542;PMS3003;6337;49.556;25.594;2023-04-03T11:44:50;3.17;2.97;
12542;PMS3003;6337;49.556;25.594;2023-04-03T11:50:20;3.37;3.03;
12542;PMS3003;6337;49.556;25.594;2023-04-03T11:52:59;4.20;3.80;
12542;PMS3003;6337;49.556;25.594;2023-04-03T11:58:24;5.13;4.20;
12542;PMS3003;6337;49.556;25.594;2023-04-03T12:00:58;6.37;3.87;
12542;PMS3003;6337;49.556;25.594;2023-04-03T12:09:25;3.90;3.60;
12542;PMS3003;6337;49.556;25.594;2023-04-03T12:11:55;2.93;2.73;
12542;PMS3003;6337;49.556;25.594;2023-04-03T12:29:14;2.60;2.40;
12542;PMS3003;6337;49.556;25.594;2023-04-03T12:36:13;3.97;3.20;
12542;PMS3003;6337;49.556;25.594;2023-04-03T12:39:04;2.55;2.45;
12542;PMS3003;6337;49.556;25.594;2023-04-03T12:42:21;2.70;2.60;
12542;PMS3003;6337;49.556;25.594;2023-04-03T12:45:05;2.63;2.20;
12542;PMS3003;6337;49.556;25.594;2023-04-03T12:47:39;1.90;1.80;
12542;PMS3003;6337;49.556;25.594;2023-04-03T12:50:34;2.97;2.80;
12542;PMS3003;6337;49.556;25.594;2023-04-03T12:53:16;2.47;2.35;
12542;PMS3003;6337;49.556;25.594;2023-04-03T12:59:12;5.13;3.95;
12542;PMS3003;6337;49.556;25.594;2023-04-03T13:04:57;5.07;3.50;
12542;PMS3003;6337;49.556;25.594;2023-04-03T13:07:30;3.95;3.65;
12542;PMS3003;6337;49.556;25.594;2023-04-03T13:10:03;5.40;3.92;
12542;PMS3003;6337;49.556;25.594;2023-04-03T13:12:45;4.57;3.92;
12542;PMS3003;6337;49.556;25.594;2023-04-03T13:15:20;6.35;3.17;
12542;PMS3003;6337;49.556;25.594;2023-04-03T13:17:57;3.00;2.85;
12542;PMS3003;6337;49.556;25.594;2023-04-03T13:20:28;3.15;2.95;
12542;PMS3003;6337;49.556;25.594;2023-04-03T13:22:59;5.20;3.70;
12542;PMS3003;6337;49.556;25.594;2023-04-03T13:25:30;3.55;3.25;
12542;PMS3003;6337;49.556;25.594;2023-04-03T13:28:04;8.57;3.40;
12542;PMS3003;6337;49.556;25.594;2023-04-03T13:30:59;5.90;4.65;
12542;PMS3003;6337;49.556;25.594;2023-04-03T13:33:43;5.65;5.07;
12542;PMS3003;6337;49.556;25.594;2023-04-03T13:39:24;5.15;4.53;
12542;PMS3003;6337;49.556;25.594;2023-04-03T13:41:55;5.45;4.95;
12542;PMS3003;6337;49.556;25.594;2023-04-03T13:44:28;3.17;2.92;
12542;PMS3003;6337;49.556;25.594;2023-04-03T13:47:15;2.85;2.30;
12542;PMS3003;6337;49.556;25.594;2023-04-03T13:52:49;3.08;2.85;
12542;PMS3003;6337;49.556;25.594;2023-04-03T13:55:21;2.63;2.42;
12542;PMS3003;6337;49.556;25.594;2023-04-03T13:58:19;2.80;2.60;
12542;PMS3003;6337;49.556;25.594;2023-04-03T14:00:50;2.50;2.30;
12542;PMS3003;6337;49.556;25.594;2023-04-03T14:03:21;3.08;2.88;
12542;PMS3003;6337;49.556;25.594;2023-04-03T14:05:55;3.85;3.63;
12542;PMS3003;6337;49.556;25.594;2023-04-03T14:08:25;5.25;4.57;
12542;PMS3003;6337;49.556;25.594;2023-04-03T14:11:10;3.55;3.25;
12542;PMS3003;6337;49.556;25.594;2023-04-03T14:13:51;3.95;3.55;
12542;PMS3003;6337;49.556;25.594;2023-04-03T14:16:39;2.72;2.63;
12542;PMS3003;6337;49.556;25.594;2023-04-03T14:19:22;2.97;2.88;
12542;PMS3003;6337;49.556;25.594;2023-04-03T14:22:13;3.30;3.00;
12542;PMS3003;6337;49.556;25.594;2023-04-03T14:24:42;3.47;3.22;
12542;PMS3003;6337;49.556;25.594;2023-04-03T14:38:52;3.30;2.60;
12542;PMS3003;6337;49.556;25.594;2023-04-03T14:41:54;3.92;3.10;
12542;PMS3003;6337;49.556;25.594;2023-04-03T14:44:28;4.47;2.72;
12542;PMS3003;6337;49.556;25.594;2023-04-03T14:46:58;3.58;2.20;
12542;PMS3003;6337;49.556;25.594;2023-04-03T14:49:40;3.67;3.38;
12542;PMS3003;6337;49.556;25.594;2023-04-03T14:52:16;7.30;2.50;
12542;PMS3003;6337;49.556;25.594;2023-04-03T15:00:41;2.53;2.30;
12542;PMS3003;6337;49.556;25.594;2023-04-03T15:03:14;4.40;2.90;
12542;PMS3003;6337;49.556;25.594;2023-04-03T15:05:45;2.10;2.00;
12542;PMS3003;6337;49.556;25.594;2023-04-03T15:08:28;1.92;1.83;
12542;PMS3003;6337;49.556;25.594;2023-04-03T15:11:26;9.15;2.70;
12542;PMS3003;6337;49.556;25.594;2023-04-03T15:13:55;2.28;2.17;
12542;PMS3003;6337;49.556;25.594;2023-04-03T15:19:24;2.10;2.00;
12542;PMS3003;6337;49.556;25.594;2023-04-03T15:50:21;3.42;2.22;
12542;PMS3003;6337;49.556;25.594;2023-04-03T15:53:05;2.40;2.13;
12542;PMS3003;6337;49.556;25.594;2023-04-03T15:55:43;3.10;2.80;
12542;PMS3003;6337;49.556;25.594;2023-04-03T15:58:11;4.20;3.85;
12542;PMS3003;6337;49.556;25.594;2023-04-03T16:00:40;3.63;3.33;
12542;PMS3003;6337;49.556;25.594;2023-04-03T16:03:08;3.35;3.15;
12542;PMS3003;6337;49.556;25.594;2023-04-03T16:05:39;4.57;4.18;
12542;PMS3003;6337;49.556;25.594;2023-04-03T16:08:08;5.47;3.40;
12542;PMS3003;6337;49.556;25.594;2023-04-03T16:10:37;3.55;3.30;
12542;PMS3003;6337;49.556;25.594;2023-04-03T16:13:15;4.55;4.20;
12542;PMS3003;6337;49.556;25.594;2023-04-03T16:15:55;4.53;3.60;
12542;PMS3003;6337;49.556;25.594;2023-04-03T16:18:23;3.58;3.28;
12542;PMS3003;6337;49.556;25.594;2023-04-03T16:21:04;3.88;3.47;
12542;PMS3003;6337;49.556;25.594;2023-04-03T16:23:33;6.60;3.88;
12542;PMS3003;6337;49.556;25.594;2023-04-03T16:26:01;4.65;3.63;
12542;PMS3003;6337;49.556;25.594;2023-04-03T16:28:30;6.13;4.00;
12542;PMS3003;6337;49.556;25.594;2023-04-03T16:34:00;7.53;3.50;
12542;PMS3003;6337;49.556;25.594;2023-04-03T16:39:25;4.25;3.20;
12542;PMS3003;6337;49.556;25.594;2023-04-03T16:41:59;6.25;3.45;
12542;PMS3003;6337;49.556;25.594;2023-04-03T16:44:35;4.00;3.72;
12542;PMS3003;6337;49.556;25.594;2023-04-03T16:47:09;6.43;3.03;
12542;PMS3003;6337;49.556;25.594;2023-04-03T16:50:09;2.95;2.75;
12542;PMS3003;6337;49.556;25.594;2023-04-03T16:55:51;3.80;3.30;
12542;PMS3003;6337;49.556;25.594;2023-04-03T16:58:20;3.67;3.15;
12542;PMS3003;6337;49.556;25.594;2023-04-03T17:00:48;3.50;3.30;
12542;PMS3003;6337;49.556;25.594;2023-04-03T17:03:33;4.55;4.10;
12542;PMS3003;6337;49.556;25.594;2023-04-03T17:06:01;3.42;3.17;
12542;PMS3003;6337;49.556;25.594;2023-04-03T17:08:48;3.53;3.33;
12542;PMS3003;6337;49.556;25.594;2023-04-03T17:11:35;5.40;4.30;
12542;PMS3003;6337;49.556;25.594;2023-04-03T17:14:05;5.18;4.78;
12542;PMS3003;6337;49.556;25.594;2023-04-03T17:16:37;4.43;3.88;
12542;PMS3003;6337;49.556;25.594;2023-04-03T17:19:09;4.35;4.03;
12542;PMS3003;6337;49.556;25.594;2023-04-03T17:21:43;5.95;4.57;
12542;PMS3003;6337;49.556;25.594;2023-04-03T17:30:54;4.55;4.15;
12542;PMS3003;6337;49.556;25.594;2023-04-03T17:33:22;3.63;3.42;
12542;PMS3003;6337;49.556;25.594;2023-04-03T17:36:05;3.33;3.03;
12542;PMS3003;6337;49.556;25.594;2023-04-03T17:38:43;5.13;4.13;
12542;PMS3003;6337;49.556;25.594;2023-04-03T17:41:34;5.65;4.40;
12542;PMS3003;6337;49.556;25.594;2023-04-03T17:44:38;3.80;3.60;
12542;PMS3003;6337;49.556;25.594;2023-04-03T17:47:34;4.00;3.75;
12542;PMS3003;6337;49.556;25.594;2023-04-03T17:50:19;4.70;4.15;
12542;PMS3003;6337;49.556;25.594;2023-04-03T17:53:12;5.18;4.15;
12542;PMS3003;6337;49.556;25.594;2023-04-03T17:56:13;7.38;3.92;
12542;PMS3003;6337;49.556;25.594;2023-04-03T18:10:11;3.88;3.58;
12542;PMS3003;6337;49.556;25.594;2023-04-03T18:12:54;3.63;3.33;
12542;PMS3003;6337;49.556;25.594;2023-04-03T18:15:35;4.65;4.03;
12542;PMS3003;6337;49.556;25.594;2023-04-03T18:18:14;4.57;4.18;
12542;PMS3003;6337;49.556;25.594;2023-04-03T18:20:57;6.53;4.35;
12542;PMS3003;6337;49.556;25.594;2023-04-03T18:23:31;5.30;4.35;
12542;PMS3003;6337;49.556;25.594;2023-04-03T18:26:03;4.38;3.85;
12542;PMS3003;6337;49.556;25.594;2023-04-03T18:28:31;7.10;4.82;
12542;PMS3003;6337;49.556;25.594;2023-04-03T18:31:15;9.55;4.50;
12542;PMS3003;6337;49.556;25.594;2023-04-03T18:34:06;5.57;4.68;
12542;PMS3003;6337;49.556;25.594;2023-04-03T18:36:34;4.22;3.78;
12542;PMS3003;6337;49.556;25.594;2023-04-03T18:39:05;6.47;3.65;
12542;PMS3003;6337;49.556;25.594;2023-04-03T18:41:35;5.63;4.10;
12542;PMS3003;6337;49.556;25.594;2023-04-03T18:44:12;4.32;3.92;
12542;PMS3003;6337;49.556;25.594;2023-04-03T18:47:04;5.65;4.95;
12542;PMS3003;6337;49.556;25.594;2023-04-03T18:49:38;5.35;4.30;
12542;PMS3003;6337;49.556;25.594;2023-04-03T18:52:08;5.10;3.70;
12542;PMS3003;6337;49.556;25.594;2023-04-03T18:54:40;4.40;4.00;
12542;PMS3003;6337;49.556;25.594;2023-04-03T18:57:23;4.70;3.65;
12542;PMS3003;6337;49.556;25.594;2023-04-03T18:59:58;5.18;4.80;
12542;PMS3003;6337;49.556;25.594;2023-04-03T19:02:27;5.75;4.32;
12542;PMS3003;6337;49.556;25.594;2023-04-03T19:04:57;4.78;4.38;
12542;PMS3003;6337;49.556;25.594;2023-04-03T19:07:35;5.68;4.15;
12542;PMS3003;6337;49.556;25.594;2023-04-03T19:10:06;22.15;3.90;
12542;PMS3003;6337;49.556;25.594;2023-04-03T19:12:43;3.78;3.47;
12542;PMS3003;6337;49.556;25.594;2023-04-03T19:15:14;6.13;4.50;
12542;PMS3003;6337;49.556;25.594;2023-04-03T19:17:43;6.25;5.07;
12542;PMS3003;6337;49.556;25.594;2023-04-03T19:20:12;6.93;4.28;
12542;PMS3003;6337;49.556;25.594;2023-04-03T19:23:18;4.22;3.70;
12542;PMS3003;6337;49.556;25.594;2023-04-03T19:28:52;4.85;4.40;